首页
METAR-TAF:

METAR-TAF

机场 :

法兰克福-哈恩机场

Hahn, 德国

纬度: 49-57N, 经度: 007-16E, 海拔: 491米

当前天气观测

该预报发布于26分钟前的01:20 UTC
风速4节,风向西转西北,在西转西南北转西北之间变化
温度 1°C
湿度 100%
气压 1003 hPa
能見度: 2000
多云层高于200英尺
小毛毛雨

METAR: EDFH 180120Z 30004KT 250V340 2000 -DZ BKN002 01/01 Q1003

时间: 02:46 (01:46 UTC)

预报

该预报发布于2小时和46分钟前的23:00 UTC
预报有效从18日的 00点(UTC)到 18日的 24点(UTC)
风速7节,风向北转西北
能見度: 4000
多云层高于300英尺
轻雾
短暂存在
从 18日的 00点(UTC)到 18日的 21点(UTC)
能見度: 1500
小雪, 雨
成为
从 18日的 07点(UTC)到 18日的 10点(UTC)
风速7节,风向西转西南
几率 30% :
短暂存在
从 18日的 09点(UTC)到 18日的 20点(UTC)
能見度: 0800
阴天层高于100英尺
成为
从 18日的 13点(UTC)到 18日的 15点(UTC)
风速12节,风向西南
短暂存在
从 18日的 21点(UTC)到 18日的 24点(UTC)
风速15节,风向西南,有时为25节阵风
能見度: 2000
毛毛雨, 雨

TAF: EDFH 172300Z 1800/1824 34007KT 4000 BR BKN003 TEMPO 1800/1821 1500 -SNRA BECMG 1807/1810 25007KT PROB30 TEMPO 1809/1820 0800 SN OVC001 BECMG 1813/1815 23012KT TEMPO 1821/1824 23015G25KT 2000 DZRA

超过4000个机场的气象观测和天气预报(METAR&TAF报告)。

可查询的气象台以黄色和红色小点在地图上表示。

将鼠标移到小点上方,可查看气象台名称。

然后点击查看天气观测和预报。

如需切换地图:点击带黑十字的绿色按钮放大地图;点击带横线的绿色按钮缩小地图;或者点击绿色箭头查看邻近地区的地图。


METAR-TAF: